createdAt,value
2018-07-11T00:00:22.657Z,77.70
2018-07-11T00:02:52.187Z,77.10
2018-07-11T00:05:21.292Z,79.10
2018-07-11T00:07:50.443Z,79.70
2018-07-11T00:12:48.190Z,76.60
2018-07-11T00:15:17.335Z,76.40
2018-07-11T00:17:46.642Z,74.60
2018-07-11T00:20:15.753Z,74.50
2018-07-11T00:22:45.094Z,73.70
2018-07-11T00:25:14.457Z,73.20
2018-07-11T00:27:43.529Z,72.10
2018-07-11T00:30:12.665Z,74.30
2018-07-11T00:32:41.791Z,74.80
2018-07-11T00:35:11.489Z,76.10
2018-07-11T00:37:40.779Z,75.40
2018-07-11T00:40:09.905Z,77.10
2018-07-11T00:45:07.830Z,76.10
2018-07-11T00:47:37.054Z,74.10
2018-07-11T00:50:06.256Z,74.80
2018-07-11T00:52:35.565Z,74.50
2018-07-11T00:55:04.925Z,73.90
2018-07-11T00:57:35.054Z,72.80
2018-07-11T01:00:04.461Z,71.40
2018-07-11T01:02:33.885Z,70.10
2018-07-11T01:05:03.019Z,71.80
2018-07-11T01:07:32.138Z,74.50
2018-07-11T01:10:01.263Z,74.80
2018-07-11T01:12:30.464Z,75.00
2018-07-11T01:14:59.846Z,76.60
2018-07-11T01:17:34.286Z,78.20
2018-07-11T01:20:03.666Z,78.20
2018-07-11T01:22:32.771Z,77.70
2018-07-11T01:25:02.114Z,77.30
2018-07-11T01:27:31.287Z,78.20
2018-07-11T01:30:00.722Z,76.40
2018-07-11T01:32:30.051Z,76.40
2018-07-11T01:34:59.141Z,77.10
2018-07-11T01:37:28.231Z,77.30
2018-07-11T01:39:58.229Z,77.90
2018-07-11T01:42:27.349Z,79.80
2018-07-11T01:44:56.479Z,80.70
2018-07-11T01:47:25.606Z,80.90
2018-07-11T01:49:54.962Z,80.90
2018-07-11T01:52:35.787Z,80.60
2018-07-11T01:55:04.882Z,80.20
2018-07-11T01:57:34.214Z,79.30
2018-07-11T02:00:03.376Z,80.00
2018-07-11T02:02:32.518Z,77.30
2018-07-11T02:05:01.687Z,76.30
2018-07-11T02:07:30.904Z,75.50
2018-07-11T02:10:00.065Z,74.10
2018-07-11T02:12:29.202Z,74.80
2018-07-11T02:15:04.261Z,73.40
2018-07-11T02:17:34.345Z,75.20
2018-07-11T02:20:04.287Z,78.60
2018-07-11T02:22:35.183Z,79.10
2018-07-11T02:25:05.150Z,77.00
2018-07-11T02:27:35.082Z,77.10
2018-07-11T02:30:04.528Z,78.20
2018-07-11T02:32:34.453Z,79.50
2018-07-11T02:35:03.642Z,78.20
2018-07-11T02:37:33.044Z,75.20
2018-07-11T02:40:02.284Z,73.40
2018-07-11T02:42:31.369Z,69.40
2018-07-11T02:45:00.758Z,70.30
2018-07-11T02:47:35.358Z,68.20
2018-07-11T02:50:05.486Z,65.80
2018-07-11T02:52:34.589Z,64.90
2018-07-11T02:55:04.116Z,66.20
2018-07-11T02:57:33.502Z,68.30
2018-07-11T03:02:30.330Z,68.50
2018-07-11T03:04:59.767Z,69.80
2018-07-11T03:07:29.402Z,69.10
2018-07-11T03:09:58.638Z,68.20
2018-07-11T03:12:28.114Z,69.20
2018-07-11T03:14:57.494Z,66.70
2018-07-11T03:17:26.903Z,68.20
2018-07-11T03:19:55.980Z,66.20
2018-07-11T03:22:25.135Z,68.00
2018-07-11T03:24:54.324Z,67.10
2018-07-11T03:27:23.469Z,67.80
2018-07-11T03:29:52.615Z,67.40
2018-07-11T03:32:21.745Z,68.20
2018-07-11T03:34:51.423Z,69.20
2018-07-11T03:37:20.870Z,67.40
2018-07-11T03:39:50.291Z,68.50
2018-07-11T03:42:19.426Z,66.40
2018-07-11T03:44:48.817Z,66.60
2018-07-11T03:47:17.914Z,70.30
2018-07-11T03:49:46.994Z,70.70
2018-07-11T03:52:16.122Z,71.40
2018-07-11T03:54:45.280Z,69.10
2018-07-11T03:57:14.652Z,70.90
2018-07-11T03:59:43.758Z,70.10
2018-07-11T04:02:13.401Z,70.10
2018-07-11T04:04:42.471Z,72.10
2018-07-11T04:07:11.580Z,72.30
2018-07-11T04:09:40.647Z,71.90
2018-07-11T04:12:09.869Z,72.80
2018-07-11T04:14:38.981Z,73.00
2018-07-11T04:17:08.146Z,73.00
2018-07-11T04:19:37.566Z,73.40
2018-07-11T04:22:18.944Z,73.70
2018-07-11T04:24:49.243Z,71.60
2018-07-11T04:27:19.550Z,72.70
2018-07-11T04:29:49.282Z,72.50
2018-07-11T04:32:18.415Z,73.90
2018-07-11T04:34:47.688Z,72.70
2018-07-11T04:37:16.776Z,71.20
2018-07-11T04:39:46.677Z,68.70
2018-07-11T04:42:16.183Z,66.90
2018-07-11T04:44:45.262Z,65.30
2018-07-11T04:47:15.066Z,64.80
2018-07-11T04:49:44.763Z,63.00
2018-07-11T04:52:14.130Z,61.20
2018-07-11T04:54:43.254Z,60.30
2018-07-11T04:57:12.920Z,59.40
2018-07-11T04:59:42.029Z,58.60
2018-07-11T05:02:11.146Z,57.70
2018-07-11T05:04:40.247Z,57.30
2018-07-11T05:07:10.602Z,56.90
2018-07-11T05:09:39.688Z,56.90
2018-07-11T05:12:09.069Z,56.10
2018-07-11T05:14:38.471Z,55.50
2018-07-11T05:17:07.542Z,55.40
2018-07-11T05:19:36.687Z,54.50
2018-07-11T05:22:05.769Z,55.40
2018-07-11T05:24:34.846Z,56.30
2018-07-11T05:27:04.234Z,57.70
2018-07-11T05:29:33.606Z,57.70
2018-07-11T05:32:02.719Z,58.20
2018-07-11T05:34:31.835Z,60.00
2018-07-11T05:37:01.446Z,59.40
2018-07-11T05:39:30.552Z,58.50
2018-07-11T05:41:59.718Z,57.40
2018-07-11T05:44:29.106Z,56.70
2018-07-11T05:47:04.300Z,58.80
2018-07-11T05:49:33.681Z,58.30
2018-07-11T05:52:03.585Z,60.40
2018-07-11T05:54:34.526Z,61.50
2018-07-11T05:57:03.738Z,62.10
2018-07-11T05:59:32.840Z,60.10
2018-07-11T06:02:02.942Z,60.40
2018-07-11T06:04:32.230Z,58.00
2018-07-11T06:07:01.442Z,58.50
2018-07-11T06:09:30.918Z,56.60
2018-07-11T06:12:00.128Z,55.40
2018-07-11T06:14:29.210Z,55.70
2018-07-11T06:16:58.717Z,55.10
2018-07-11T06:19:27.874Z,54.20
2018-07-11T06:21:56.985Z,53.80
2018-07-11T06:24:26.443Z,53.90
2018-07-11T06:26:55.811Z,55.50
2018-07-11T06:29:25.235Z,54.50
2018-07-11T06:31:54.757Z,53.60
2018-07-11T06:34:23.847Z,53.90
2018-07-11T06:36:53.035Z,53.30
2018-07-11T06:39:22.238Z,53.50
2018-07-11T06:41:51.937Z,52.70
2018-07-11T06:44:21.031Z,53.30
2018-07-11T06:46:50.133Z,53.80
2018-07-11T06:49:19.364Z,55.50
2018-07-11T06:51:48.457Z,55.40
2018-07-11T06:54:17.561Z,54.10
2018-07-11T06:56:47.738Z,53.50
2018-07-11T06:59:17.090Z,53.00
2018-07-11T07:01:46.163Z,53.20
2018-07-11T07:04:15.262Z,52.70
2018-07-11T07:06:44.526Z,52.30
2018-07-11T07:09:13.626Z,51.40
2018-07-11T07:11:42.922Z,51.50
2018-07-11T07:14:12.420Z,51.20
2018-07-11T07:16:42.565Z,51.20
2018-07-11T07:19:11.921Z,50.10
2018-07-11T07:21:41.034Z,50.40
2018-07-11T07:24:10.464Z,50.80
2018-07-11T07:26:39.584Z,49.80
2018-07-11T07:29:08.771Z,48.30
2018-07-11T07:31:38.057Z,46.80
2018-07-11T07:34:07.442Z,47.10
2018-07-11T07:36:36.535Z,47.10
2018-07-11T07:39:06.163Z,46.80
2018-07-11T07:41:35.297Z,47.70
2018-07-11T07:44:04.745Z,45.80
2018-07-11T07:46:33.935Z,45.30
2018-07-11T07:49:03.038Z,45.20
2018-07-11T07:51:32.252Z,41.60
2018-07-11T07:54:01.827Z,40.00
2018-07-11T07:56:30.995Z,40.60
2018-07-11T07:59:00.335Z,39.90
2018-07-11T08:01:29.666Z,37.60
2018-07-11T08:03:59.478Z,38.40
2018-07-11T08:06:28.666Z,40.60
2018-07-11T08:08:58.400Z,40.70
2018-07-11T08:11:27.927Z,40.30
2018-07-11T08:13:58.086Z,39.30
2018-07-11T08:16:27.270Z,38.50
2018-07-11T08:18:56.387Z,38.10
2018-07-11T08:21:25.538Z,38.40
2018-07-11T08:24:06.647Z,38.50
2018-07-11T08:26:46.951Z,38.50
2018-07-11T08:30:24.418Z,39.00
2018-07-11T08:36:42.418Z,38.10
2018-07-11T08:41:28.206Z,38.10
2018-07-11T08:44:09.670Z,37.90
2018-07-11T08:46:51.274Z,37.80
2018-07-11T08:49:30.724Z,39.90
2018-07-11T08:53:11.028Z,40.30
2018-07-11T08:55:55.272Z,40.00
2018-07-11T08:58:35.674Z,41.50
2018-07-11T09:01:19.129Z,41.50
2018-07-11T09:05:08.055Z,41.20
2018-07-11T09:08:50.293Z,41.60
2018-07-11T09:12:33.622Z,41.20
2018-07-11T09:15:18.015Z,42.80
2018-07-11T09:18:57.303Z,43.40
2018-07-11T09:22:38.306Z,42.70
2018-07-11T09:25:07.370Z,41.90
2018-07-11T09:27:36.491Z,40.60
2018-07-11T09:30:05.629Z,38.20
2018-07-11T09:32:40.249Z,37.80
2018-07-11T09:35:10.653Z,36.90
2018-07-11T09:37:40.129Z,35.30
2018-07-11T09:40:10.519Z,34.80
2018-07-11T09:42:43.756Z,34.10
2018-07-11T09:45:13.304Z,33.80
2018-07-11T09:47:43.611Z,32.50
2018-07-11T09:50:14.219Z,34.50
2018-07-11T09:52:44.561Z,35.30
2018-07-11T09:55:15.362Z,34.50
2018-07-11T09:57:50.145Z,36.30
2018-07-11T10:00:27.842Z,35.40
2018-07-11T10:02:57.139Z,34.40
2018-07-11T10:05:27.212Z,31.90
2018-07-11T10:07:56.946Z,31.70
2018-07-11T10:10:26.106Z,32.20
2018-07-11T10:12:55.377Z,31.70
2018-07-11T10:15:25.009Z,31.70
2018-07-11T10:17:55.123Z,31.40
2018-07-11T10:20:24.441Z,32.60
2018-07-11T10:22:53.849Z,33.40
2018-07-11T10:25:22.969Z,33.40
2018-07-11T10:28:03.290Z,34.10
2018-07-11T10:30:32.409Z,35.10
2018-07-11T10:33:01.557Z,35.70
2018-07-11T10:35:30.719Z,35.60
2018-07-11T10:37:59.846Z,33.50
2018-07-11T10:40:28.950Z,32.60
2018-07-11T10:42:58.359Z,32.90
2018-07-11T10:45:28.350Z,33.50
2018-07-11T10:47:57.490Z,32.20
2018-07-11T10:50:26.636Z,31.10
2018-07-11T10:52:56.626Z,29.80
2018-07-11T10:55:25.798Z,28.90
2018-07-11T10:57:56.754Z,29.40
2018-07-11T11:00:36.658Z,28.30
2018-07-11T11:02:59.922Z,29.10
2018-07-11T11:05:29.379Z,29.00
2018-07-11T11:07:58.567Z,28.20
2018-07-11T11:10:27.681Z,27.50
2018-07-11T11:12:57.130Z,27.00
2018-07-11T11:15:26.270Z,26.50
2018-07-11T11:17:55.410Z,25.80
2018-07-11T11:20:24.559Z,25.10
2018-07-11T11:22:53.730Z,25.40
2018-07-11T11:25:22.826Z,27.10
2018-07-11T11:27:52.558Z,25.70
2018-07-11T11:30:21.687Z,26.80
2018-07-11T11:32:51.820Z,27.40
2018-07-11T11:35:22.169Z,28.40
2018-07-11T11:37:51.292Z,27.30
2018-07-11T11:40:20.900Z,28.20
2018-07-11T11:42:50.116Z,29.60
2018-07-11T11:45:19.271Z,32.00
2018-07-11T11:47:48.361Z,33.80
2018-07-11T11:50:17.445Z,33.80
2018-07-11T11:52:46.648Z,32.80
2018-07-11T11:55:15.716Z,32.80
2018-07-11T11:57:44.954Z,33.10
2018-07-11T12:00:14.152Z,33.80
2018-07-11T12:02:43.660Z,34.40
2018-07-11T12:05:13.182Z,33.40
2018-07-11T12:07:42.437Z,33.40
2018-07-11T12:10:11.730Z,32.60
2018-07-11T12:12:40.994Z,30.70
2018-07-11T12:15:10.381Z,29.40
2018-07-11T12:17:39.463Z,28.80
2018-07-11T12:20:08.570Z,28.00
2018-07-11T12:22:38.277Z,26.60
2018-07-11T12:25:07.401Z,27.80
2018-07-11T12:27:36.517Z,27.80
2018-07-11T12:30:05.650Z,27.80
2018-07-11T12:32:34.725Z,28.10
2018-07-11T12:35:03.950Z,26.90
2018-07-11T12:37:33.037Z,27.50
2018-07-11T12:40:03.282Z,27.40
2018-07-11T12:42:32.409Z,29.10
2018-07-11T12:45:01.549Z,28.30
2018-07-11T12:47:36.280Z,28.80
2018-07-11T12:50:05.664Z,28.50
2018-07-11T12:52:34.794Z,27.50
2018-07-11T12:55:03.957Z,26.80
2018-07-11T12:57:33.098Z,27.60
2018-07-11T13:00:02.198Z,28.40
2018-07-11T13:02:31.428Z,27.60
2018-07-11T13:05:00.535Z,28.60
2018-07-11T13:07:30.262Z,29.40
2018-07-11T13:09:59.689Z,28.70
2018-07-11T13:12:28.873Z,29.30
2018-07-11T13:14:58.009Z,28.30
2018-07-11T13:17:27.177Z,29.20
2018-07-11T13:19:56.530Z,29.00
2018-07-11T13:22:25.667Z,28.70
2018-07-11T13:24:54.846Z,29.20
2018-07-11T13:27:23.994Z,29.50
2018-07-11T13:29:53.125Z,29.90
2018-07-11T13:32:26.484Z,30.30
2018-07-11T13:34:56.240Z,30.70
2018-07-11T13:37:25.665Z,31.90
2018-07-11T13:39:55.286Z,32.90
2018-07-11T13:42:25.259Z,32.90
2018-07-11T13:44:54.683Z,33.20
2018-07-11T13:47:26.694Z,33.70
2018-07-11T13:49:56.461Z,33.80
2018-07-11T13:52:25.538Z,34.20
2018-07-11T13:54:55.080Z,34.10
2018-07-11T13:57:24.581Z,33.50
2018-07-11T13:59:53.961Z,31.60
2018-07-11T14:02:23.054Z,30.70
2018-07-11T14:04:52.219Z,31.70
2018-07-11T14:07:21.750Z,32.20
2018-07-11T14:09:50.853Z,32.60
2018-07-11T14:12:20.057Z,33.70
2018-07-11T14:14:49.180Z,34.00
2018-07-11T14:17:18.542Z,35.00
2018-07-11T14:19:47.702Z,35.40
2018-07-11T14:22:16.814Z,35.70
2018-07-11T14:24:45.994Z,35.30
2018-07-11T14:27:15.515Z,36.30
2018-07-11T14:29:45.336Z,36.00
2018-07-11T14:32:14.663Z,36.50
2018-07-11T14:34:43.757Z,38.70
2018-07-11T14:37:12.961Z,45.80
2018-07-11T14:39:42.073Z,44.40
2018-07-11T14:42:11.390Z,44.30
2018-07-11T14:44:40.551Z,37.40
2018-07-11T14:47:13.928Z,41.90
2018-07-11T14:49:43.569Z,37.80
2018-07-11T14:52:12.960Z,37.10
2018-07-11T14:54:42.173Z,38.10
2018-07-11T14:57:11.701Z,40.90
2018-07-11T14:59:41.104Z,40.70
2018-07-11T15:02:11.414Z,41.30
2018-07-11T15:04:40.566Z,40.00
2018-07-11T15:07:09.686Z,40.30
2018-07-11T15:09:39.042Z,41.30
2018-07-11T15:12:08.465Z,41.30
2018-07-11T15:14:37.638Z,40.50
2018-07-11T15:17:06.989Z,41.80
2018-07-11T15:19:36.410Z,43.30
2018-07-11T15:22:05.769Z,40.70
2018-07-11T15:24:34.980Z,39.40
2018-07-11T15:27:04.211Z,44.40
2018-07-11T15:29:33.438Z,43.00
2018-07-11T15:32:02.577Z,41.90
2018-07-11T15:34:32.081Z,44.70
2018-07-11T15:37:01.434Z,43.30
2018-07-11T15:39:30.685Z,42.50
2018-07-11T15:41:59.820Z,42.80
2018-07-11T15:46:57.974Z,41.80
2018-07-11T15:49:27.200Z,42.70
2018-07-11T15:51:56.773Z,42.50
2018-07-11T15:54:25.897Z,42.20
2018-07-11T15:56:55.253Z,41.50
2018-07-11T15:59:29.053Z,40.60
2018-07-11T16:01:58.602Z,39.70
2018-07-11T16:04:35.765Z,39.90
2018-07-11T16:07:06.482Z,38.80
2018-07-11T16:09:54.951Z,39.30
2018-07-11T16:12:24.789Z,38.70
2018-07-11T16:14:54.899Z,39.10
2018-07-11T16:17:24.488Z,37.80
2018-07-11T16:19:53.620Z,38.40
2018-07-11T16:22:23.223Z,37.90
2018-07-11T16:24:52.665Z,38.40
2018-07-11T16:27:22.074Z,40.60
2018-07-11T16:29:51.722Z,38.80
2018-07-11T16:32:20.889Z,40.20
2018-07-11T16:34:50.262Z,40.30
2018-07-11T16:37:19.810Z,40.60
2018-07-11T16:39:49.112Z,40.30
2018-07-11T16:42:19.163Z,40.60
2018-07-11T16:44:48.881Z,40.90
2018-07-11T16:49:46.653Z,41.90
2018-07-11T16:52:16.506Z,41.80
2018-07-11T16:54:45.617Z,42.10
2018-07-11T16:57:17.474Z,43.00
2018-07-11T16:59:52.858Z,43.00
2018-07-11T17:02:22.513Z,43.00
2018-07-11T17:04:54.528Z,42.70
2018-07-11T17:07:25.861Z,42.50
2018-07-11T17:09:58.694Z,42.20
2018-07-11T17:12:27.862Z,42.10
2018-07-11T17:17:32.771Z,41.90
2018-07-11T17:20:09.330Z,43.30
2018-07-11T17:22:51.231Z,44.00
2018-07-11T17:25:21.183Z,44.10
2018-07-11T17:27:56.977Z,43.70
2018-07-11T17:30:26.961Z,43.40
2018-07-11T17:32:56.184Z,42.80
2018-07-11T17:35:26.785Z,42.80
2018-07-11T17:37:58.442Z,42.70
2018-07-11T17:40:27.543Z,42.50
2018-07-11T17:42:57.054Z,42.40
2018-07-11T17:45:26.438Z,42.40
2018-07-11T17:48:05.079Z,42.40
2018-07-11T17:50:34.335Z,42.40
2018-07-11T17:53:22.297Z,42.50
2018-07-11T17:56:06.130Z,42.70
2018-07-11T17:58:47.575Z,42.50
2018-07-11T18:01:17.209Z,42.50
2018-07-11T18:03:52.574Z,42.10
2018-07-11T18:06:26.664Z,42.50
2018-07-11T18:09:05.050Z,42.50
2018-07-11T18:11:43.580Z,42.70
2018-07-11T18:14:15.175Z,42.50
2018-07-11T18:16:58.620Z,43.10
2018-07-11T18:19:33.993Z,44.00
2018-07-11T18:23:18.576Z,44.40
2018-07-11T18:26:13.630Z,44.70
2018-07-11T18:28:54.280Z,44.60
2018-07-11T18:31:35.135Z,44.60
2018-07-11T18:35:16.925Z,44.30
2018-07-11T18:37:52.670Z,44.90
2018-07-11T18:40:30.770Z,45.60
2018-07-11T18:44:13.342Z,46.50
2018-07-11T18:46:55.999Z,47.10
2018-07-11T18:49:31.406Z,47.30
2018-07-11T18:52:39.706Z,48.30
2018-07-11T18:55:18.646Z,47.80
2018-07-11T18:57:59.346Z,48.00
2018-07-11T19:00:43.856Z,48.30
2018-07-11T19:03:41.264Z,48.10
2018-07-11T19:06:36.311Z,49.00
2018-07-11T19:09:13.548Z,49.80
2018-07-11T19:11:52.579Z,49.00
2018-07-11T19:14:58.602Z,49.20
2018-07-11T19:17:43.561Z,49.30
2018-07-11T19:20:29.104Z,49.80
2018-07-11T19:23:15.227Z,51.20
2018-07-11T19:27:57.849Z,51.70
2018-07-11T19:31:42.170Z,52.60
2018-07-11T19:34:27.642Z,52.70
2018-07-11T19:37:05.133Z,52.90
2018-07-11T19:39:41.274Z,53.80
2018-07-11T19:44:28.074Z,52.70
2018-07-11T19:49:10.055Z,52.60
2018-07-11T19:51:52.802Z,52.40
2018-07-11T19:54:34.138Z,53.00
2018-07-11T19:57:03.264Z,52.60
2018-07-11T19:59:32.359Z,53.30
2018-07-11T20:02:01.538Z,54.80
2018-07-11T20:04:30.920Z,54.60
2018-07-11T20:07:00.232Z,54.50
2018-07-11T20:09:29.654Z,54.60
2018-07-11T20:11:58.989Z,54.90
2018-07-11T20:14:28.732Z,55.10
2018-07-11T20:16:57.826Z,56.10
2018-07-11T20:19:27.423Z,56.30
2018-07-11T20:21:56.932Z,57.60
2018-07-11T20:24:26.353Z,56.40
2018-07-11T20:26:55.677Z,56.40
2018-07-11T20:29:25.698Z,56.60
2018-07-11T20:31:58.109Z,57.40
2018-07-11T20:34:27.349Z,57.70
2018-07-11T20:36:56.910Z,56.60
2018-07-11T20:39:26.531Z,57.90
2018-07-11T20:41:55.684Z,57.30
2018-07-11T20:44:24.863Z,58.80
2018-07-11T20:46:54.091Z,59.20
2018-07-11T20:49:30.033Z,60.30
2018-07-11T20:51:59.159Z,62.60
2018-07-11T20:54:28.499Z,64.40
2018-07-11T20:56:57.754Z,64.20
2018-07-11T20:59:39.039Z,62.20
2018-07-11T21:02:19.621Z,66.20
2018-07-11T21:07:05.574Z,68.70
2018-07-11T21:09:54.190Z,68.00
2018-07-11T21:13:38.790Z,72.70
2018-07-11T21:17:25.573Z,72.10
2018-07-11T21:19:54.994Z,76.40
2018-07-11T21:22:24.110Z,76.10
2018-07-11T21:24:53.455Z,75.50
2018-07-11T21:27:23.097Z,78.00
2018-07-11T21:29:52.641Z,77.10
2018-07-11T21:32:23.132Z,77.50
2018-07-11T21:34:52.495Z,78.20
2018-07-11T21:37:21.972Z,78.90
2018-07-11T21:39:51.121Z,76.80
2018-07-11T21:42:20.241Z,73.60
2018-07-11T21:44:50.937Z,70.00
2018-07-11T21:47:23.600Z,69.10
2018-07-11T21:49:55.063Z,71.80
2018-07-11T21:52:27.079Z,71.90
2018-07-11T21:54:58.822Z,70.00
2018-07-11T21:57:30.267Z,68.90
2018-07-11T22:00:02.404Z,71.40
2018-07-11T22:02:34.721Z,69.40
2018-07-11T22:05:05.515Z,68.20
2018-07-11T22:07:37.418Z,68.00
2018-07-11T22:10:09.053Z,66.20
2018-07-11T22:12:40.021Z,64.80
2018-07-11T22:15:09.489Z,62.20
2018-07-11T22:17:51.673Z,63.70
2018-07-11T22:20:20.351Z,62.80
2018-07-11T22:22:49.807Z,61.50
2018-07-11T22:25:19.662Z,62.10
2018-07-11T22:27:49.024Z,62.10
2018-07-11T22:30:17.832Z,62.20
2018-07-11T22:32:46.886Z,62.10
2018-07-11T22:35:16.381Z,60.80
2018-07-11T22:37:45.830Z,60.80
2018-07-11T22:40:15.526Z,61.70
2018-07-11T22:42:44.771Z,61.00
2018-07-11T22:45:13.978Z,61.70
2018-07-11T22:47:43.093Z,63.70
2018-07-11T22:50:11.806Z,63.50
2018-07-11T22:55:09.866Z,71.60
2018-07-11T22:57:37.922Z,69.80
2018-07-11T23:00:06.846Z,68.90
2018-07-11T23:02:35.768Z,70.50
2018-07-11T23:05:04.949Z,71.60
2018-07-11T23:07:34.000Z,70.00
2018-07-11T23:10:02.299Z,68.50
2018-07-11T23:12:31.353Z,67.40
2018-07-11T23:14:59.605Z,69.10
2018-07-11T23:17:30.542Z,68.30
2018-07-11T23:19:58.718Z,67.30
2018-07-11T23:22:27.660Z,67.80
2018-07-11T23:24:56.490Z,68.00
2018-07-11T23:27:26.305Z,67.30
2018-07-11T23:29:55.914Z,67.60
2018-07-11T23:32:24.730Z,67.10
2018-07-11T23:34:53.580Z,66.20
2018-07-11T23:37:22.977Z,66.60
2018-07-11T23:39:51.740Z,68.30
2018-07-11T23:42:21.968Z,69.40
2018-07-11T23:44:50.396Z,68.70
2018-07-11T23:47:20.187Z,69.60
2018-07-11T23:49:50.462Z,70.10
2018-07-11T23:52:19.555Z,72.50
2018-07-11T23:54:49.062Z,72.70
2018-07-11T23:59:45.729Z,72.30
